Terminal Aerodrome Forecast
Issued by NWS Oklahoma City, OK

Home | Current Version | Previous Version | Text Only | Print | Product List | Glossary On
Versions: 1 2 3 4 5 6 7 8 9 10 11 12 13 14 15 16 17 18 19 20 21 22 23 24 25 26 27 28 29 30 31 32
000
FTUS44 KOUN 181424 AAB
TAFOUN
TAF AMD
KOUN 181424Z 1814/1912 12006KT P6SM BKN035
      TEMPO 1814/1818 OVC025
     FM182300 14007KT P6SM VCTS SCT050CB BKN200
      TEMPO 1900/1902 27015G30KT 3SM TSRA SCT015 OVC040CB
     FM190400 14008KT P6SM FEW008 BKN100=

USA.gov is the U.S. government's official web portal to all federal, state and local government web resources and services.